Time;durP1;ratioP1;P1;durP2;ratioP2;P2;SDS_P1;SDS_P2;PMS_P1;PMS_P2;Temp;Humidity;BMP_temperature;BMP_pressure;BME280_temperature;BME280_humidity;BME280_pressure;Samples;Min_cycle;Max_cycle;Signal;HPM_P1;HPM_P2
2022/11/13 00:01:23;;;;;;;10.70;9.05;;;5.70;99.90;;;;;;4952885;28;20473;-69
2022/11/13 00:03:49;;;;;;;10.00;8.93;;;5.60;99.90;;;;;;4966787;28;20451;-69
2022/11/13 00:06:16;;;;;;;10.65;9.30;;;5.80;99.90;;;;;;4972471;28;20475;-69
2022/11/13 00:08:41;;;;;;;10.50;9.40;;;5.80;99.90;;;;;;4972250;28;20420;-68
2022/11/13 00:11:10;;;;;;;9.10;8.20;;;5.80;99.90;;;;;;4972222;28;20410;-69
2022/11/13 00:13:36;;;;;;;9.63;8.63;;;5.70;99.90;;;;;;4971165;28;20502;-69
2022/11/13 00:16:05;;;;;;;9.90;8.60;;;5.90;99.90;;;;;;4972508;28;20424;-69
2022/11/13 00:18:34;;;;;;;9.27;8.37;;;5.70;99.90;;;;;;4972343;28;20505;-69
2022/11/13 00:21:14;;;;;;;9.60;8.60;;;5.70;99.90;;;;;;4972098;28;20423;-69
2022/11/13 00:23:40;;;;;;;9.23;8.32;;;5.70;99.90;;;;;;4971710;28;20492;-69
2022/11/13 00:26:08;;;;;;;11.63;8.73;;;5.80;99.90;;;;;;4972085;28;20547;-69
2022/11/13 00:28:33;;;;;;;9.52;8.52;;;5.70;99.90;;;;;;4972037;28;20479;-69
2022/11/13 00:31:00;;;;;;;9.10;8.20;;;5.60;99.90;;;;;;4972097;28;20393;-68
2022/11/13 00:33:26;;;;;;;11.23;8.50;;;5.70;99.90;;;;;;4971543;28;20411;-69
2022/11/13 00:35:52;;;;;;;9.73;8.70;;;5.50;99.90;;;;;;4971636;28;20396;-69
2022/11/13 00:38:17;;;;;;;9.40;8.50;;;5.60;99.90;;;;;;4970630;28;20487;-69
2022/11/13 00:40:46;;;;;;;9.63;8.70;;;5.60;99.90;;;;;;4971799;28;20981;-69
2022/11/13 00:43:11;;;;;;;11.07;9.02;;;5.80;99.90;;;;;;4970384;28;20432;-69
2022/11/13 00:45:37;;;;;;;9.00;8.10;;;5.90;99.90;;;;;;4971737;28;20857;-69
2022/11/13 00:48:05;;;;;;;8.23;7.43;;;5.80;99.90;;;;;;4970780;28;20414;-68
2022/11/13 00:50:31;;;;;;;9.00;8.10;;;5.90;99.90;;;;;;4971690;28;20392;-68
2022/11/13 00:52:56;;;;;;;8.90;7.43;;;6.00;99.90;;;;;;4971475;28;20392;-68
2022/11/13 00:55:24;;;;;;;8.73;7.83;;;5.80;99.90;;;;;;4971079;28;20398;-68
2022/11/13 00:57:49;;;;;;;10.10;7.60;;;5.90;99.90;;;;;;4970738;28;20472;-68
2022/11/13 01:00:15;;;;;;;9.67;7.40;;;6.00;99.90;;;;;;4970772;28;20479;-68
2022/11/13 01:02:41;;;;;;;10.70;8.20;;;6.00;99.90;;;;;;4971260;28;20484;-68
2022/11/13 01:05:07;;;;;;;11.80;8.47;;;5.90;99.90;;;;;;4971526;28;20388;-68
2022/11/13 01:07:35;;;;;;;11.38;8.23;;;6.10;99.90;;;;;;4971323;28;20384;-68
2022/11/13 01:10:04;;;;;;;10.57;9.30;;;5.90;99.90;;;;;;4971024;28;20385;-68
2022/11/13 01:12:30;;;;;;;9.65;8.65;;;5.90;99.90;;;;;;4970637;28;20482;-68
2022/11/13 01:14:56;;;;;;;11.93;8.70;;;6.00;99.90;;;;;;4971416;28;20479;-68
2022/11/13 01:17:21;;;;;;;12.05;8.18;;;6.10;99.90;;;;;;4971546;28;20384;-68
2022/11/13 01:19:47;;;;;;;10.02;8.50;;;6.10;99.90;;;;;;4971422;28;20391;-68
2022/11/13 01:22:12;;;;;;;12.18;8.15;;;6.30;99.90;;;;;;4971590;28;20471;-68
2022/11/13 01:24:38;;;;;;;12.80;8.32;;;6.20;99.90;;;;;;4971270;28;20447;-68
2022/11/13 01:27:04;;;;;;;11.88;9.00;;;5.90;99.90;;;;;;4971305;28;20388;-68
2022/11/13 01:29:29;;;;;;;10.55;7.88;;;5.80;99.90;;;;;;4971279;28;20926;-68
2022/11/13 01:31:55;;;;;;;10.10;8.48;;;5.70;99.90;;;;;;4971413;28;20396;-68
2022/11/13 01:34:20;;;;;;;11.57;8.38;;;6.00;99.90;;;;;;4959339;28;20761;-68
2022/11/13 01:36:46;;;;;;;8.20;7.40;;;6.00;99.90;;;;;;4951886;29;20401;-68
2022/11/13 01:39:12;;;;;;;10.90;7.68;;;6.20;99.90;;;;;;4951803;29;20405;-68
2022/11/13 01:41:38;;;;;;;10.25;8.23;;;6.30;99.90;;;;;;4951976;28;20406;-68
2022/11/13 01:44:08;;;;;;;11.90;8.63;;;6.10;99.90;;;;;;4951666;29;20393;-68
2022/11/13 01:46:46;;;;;;;10.80;8.70;;;6.00;99.90;;;;;;4951899;28;20397;-68
2022/11/13 01:49:29;;;;;;;16.05;8.55;;;6.00;99.90;;;;;;4951787;28;20430;-68
2022/11/13 01:52:02;;;;;;;11.13;8.75;;;6.00;99.90;;;;;;4950495;29;20394;-68
2022/11/13 01:54:41;;;;;;;9.60;8.60;;;6.00;99.90;;;;;;4951797;28;20390;-68
2022/11/13 01:57:07;;;;;;;9.80;7.80;;;6.10;99.90;;;;;;4951601;28;20474;-68
2022/11/13 01:59:39;;;;;;;8.13;6.78;;;6.10;99.90;;;;;;4951636;28;20405;-68
2022/11/13 02:02:06;;;;;;;6.05;5.55;;;6.00;99.90;;;;;;4951715;28;20884;-68
2022/11/13 02:04:32;;;;;;;7.18;6.20;;;6.00;99.90;;;;;;4951564;28;20873;-68
2022/11/13 02:07:05;;;;;;;7.20;6.50;;;6.00;99.90;;;;;;4951781;28;20505;-68
2022/11/13 02:09:36;;;;;;;6.38;5.88;;;5.80;99.90;;;;;;4951941;28;20788;-68
2022/11/13 02:12:05;;;;;;;7.00;6.40;;;5.70;99.90;;;;;;4951872;28;20788;-68
2022/11/13 02:14:32;;;;;;;7.05;6.45;;;5.50;99.90;;;;;;4951727;28;20412;-67
2022/11/13 02:17:00;;;;;;;7.20;6.10;;;5.50;99.90;;;;;;4951629;28;20738;-67
2022/11/13 02:19:37;;;;;;;6.75;6.15;;;5.40;99.90;;;;;;4951674;28;20398;-68
2022/11/13 02:22:15;;;;;;;6.82;6.22;;;5.40;99.90;;;;;;4951568;28;20780;-68
2022/11/13 02:24:42;;;;;;;5.82;5.32;;;5.40;99.90;;;;;;4954972;29;20390;-68
2022/11/13 02:27:33;;;;;;;5.82;5.32;;;5.40;99.90;;;;;;4955034;28;20496;-68
2022/11/13 02:30:15;;;;;;;6.60;5.90;;;5.40;99.90;;;;;;4955086;28;20425;-67
2022/11/13 02:32:46;;;;;;;6.80;6.20;;;5.40;99.90;;;;;;4954669;28;20389;-68
2022/11/13 02:35:27;;;;;;;7.20;6.50;;;5.40;99.90;;;;;;4973191;28;20391;-68
2022/11/13 02:37:55;;;;;;;7.13;6.50;;;5.40;99.90;;;;;;4974117;28;20391;-69
2022/11/13 02:40:20;;;;;;;7.60;6.88;;;5.40;99.90;;;;;;4974196;28;20404;-69
2022/11/13 02:42:46;;;;;;;7.25;6.55;;;5.30;99.90;;;;;;4973692;28;20770;-69
2022/11/13 02:45:12;;;;;;;6.70;6.10;;;5.20;99.90;;;;;;4973980;28;20446;-69
2022/11/13 02:47:37;;;;;;;7.67;5.73;;;5.20;99.90;;;;;;4973840;28;20411;-69
2022/11/13 02:50:03;;;;;;;6.37;5.83;;;5.20;99.90;;;;;;4973956;28;20749;-69
2022/11/13 02:52:30;;;;;;;7.40;6.70;;;5.00;99.90;;;;;;4973668;28;20396;-69
2022/11/13 02:54:55;;;;;;;7.05;6.35;;;5.10;99.90;;;;;;4972501;28;20407;-69
2022/11/13 02:57:21;;;;;;;7.17;6.57;;;5.10;99.90;;;;;;4973793;28;20882;-69
2022/11/13 02:59:47;;;;;;;6.35;5.85;;;5.20;99.90;;;;;;4973582;28;20403;-67
2022/11/13 03:02:12;;;;;;;6.87;6.27;;;5.10;99.90;;;;;;4973666;28;20392;-69
2022/11/13 03:04:38;;;;;;;7.50;6.80;;;5.00;99.90;;;;;;4973508;28;20471;-69
2022/11/13 03:07:03;;;;;;;7.33;6.63;;;5.10;99.90;;;;;;4973609;28;20404;-69
2022/11/13 03:09:29;;;;;;;7.50;6.80;;;5.10;99.90;;;;;;4973494;28;20466;-69
2022/11/13 03:11:55;;;;;;;8.00;7.30;;;5.20;99.90;;;;;;4973512;28;20388;-67
2022/11/13 03:14:20;;;;;;;7.60;6.80;;;5.20;99.90;;;;;;4973097;28;20416;-68
2022/11/13 03:16:46;;;;;;;7.50;6.73;;;5.20;99.90;;;;;;4973452;28;20420;-68
2022/11/13 03:19:12;;;;;;;6.70;6.00;;;5.10;99.90;;;;;;4973333;28;20471;-67
2022/11/13 03:21:37;;;;;;;6.70;6.10;;;5.20;99.90;;;;;;4973462;28;20396;-68
2022/11/13 03:24:03;;;;;;;7.23;6.53;;;5.30;99.90;;;;;;4973184;28;20384;-68
2022/11/13 03:26:28;;;;;;;6.53;5.93;;;5.30;99.90;;;;;;4973155;28;20391;-68
2022/11/13 03:28:54;;;;;;;7.00;6.40;;;5.40;99.90;;;;;;4972965;28;20474;-68
2022/11/13 03:31:21;;;;;;;7.18;6.47;;;5.30;99.90;;;;;;4973310;28;20820;-68
2022/11/13 03:33:47;;;;;;;6.20;5.60;;;5.30;99.90;;;;;;4965751;28;20398;-67
2022/11/13 03:36:12;;;;;;;6.43;5.90;;;5.30;99.90;;;;;;4953332;28;20390;-68
2022/11/13 03:38:38;;;;;;;6.50;5.90;;;5.30;99.90;;;;;;4953727;29;20390;-68
2022/11/13 03:41:03;;;;;;;6.10;5.60;;;5.30;99.90;;;;;;4953646;29;20497;-68
2022/11/13 03:43:29;;;;;;;6.60;6.00;;;5.50;99.90;;;;;;4953717;28;20469;-67
2022/11/13 03:45:54;;;;;;;6.43;5.83;;;5.40;99.90;;;;;;4953671;29;20409;-69
2022/11/13 03:48:20;;;;;;;6.20;5.60;;;5.40;99.90;;;;;;4953342;29;20836;-68
2022/11/13 03:50:49;;;;;;;5.80;5.20;;;5.40;99.90;;;;;;4953587;29;20448;-68
2022/11/13 03:53:15;;;;;;;5.60;5.10;;;5.30;99.90;;;;;;4953461;28;20398;-68
2022/11/13 03:55:42;;;;;;;6.13;5.40;;;5.10;99.90;;;;;;4953531;29;20474;-68
2022/11/13 03:58:07;;;;;;;6.18;5.57;;;5.20;99.90;;;;;;4953208;28;20394;-68
2022/11/13 04:00:33;;;;;;;5.70;5.20;;;5.10;99.90;;;;;;4953598;29;20827;-68
2022/11/13 04:02:58;;;;;;;5.40;4.90;;;5.20;99.90;;;;;;4953015;29;20796;-68
2022/11/13 04:05:24;;;;;;;6.47;5.70;;;5.30;99.90;;;;;;4953292;29;20390;-68
2022/11/13 04:07:50;;;;;;;6.40;5.50;;;5.30;99.90;;;;;;4953183;29;20775;-68
2022/11/13 04:10:16;;;;;;;6.00;5.40;;;5.30;99.90;;;;;;4953208;29;20477;-68
2022/11/13 04:12:41;;;;;;;5.63;5.13;;;5.40;99.90;;;;;;4952710;28;20793;-68
2022/11/13 04:15:07;;;;;;;5.75;5.15;;;5.20;99.90;;;;;;4953186;28;20444;-67
2022/11/13 04:17:33;;;;;;;5.30;4.80;;;5.30;99.90;;;;;;4952898;28;20506;-68
2022/11/13 04:19:58;;;;;;;5.37;4.87;;;5.20;99.90;;;;;;4952818;29;20397;-68
2022/11/13 04:22:24;;;;;;;5.50;5.00;;;5.30;99.90;;;;;;4952716;29;20469;-67
2022/11/13 04:24:49;;;;;;;4.97;4.57;;;5.30;99.90;;;;;;4952832;29;20394;-68
2022/11/13 04:27:15;;;;;;;4.95;4.45;;;5.30;99.90;;;;;;4952663;29;20382;-67
2022/11/13 04:29:40;;;;;;;5.57;4.90;;;5.30;99.90;;;;;;4952709;29;20414;-68
2022/11/13 04:32:06;;;;;;;5.20;4.70;;;5.30;99.90;;;;;;4952823;29;20390;-68
2022/11/13 04:34:31;;;;;;;5.18;4.78;;;5.30;99.90;;;;;;4965525;28;20879;-68
2022/11/13 04:36:57;;;;;;;5.10;4.70;;;5.40;99.90;;;;;;4972076;28;20396;-67
2022/11/13 04:39:22;;;;;;;5.60;5.10;;;5.30;99.90;;;;;;4972031;28;20411;-68
2022/11/13 04:44:32;;;;;;;5.20;4.70;;;5.30;99.90;;;;;;4971892;28;20491;-68
2022/11/13 04:46:58;;;;;;;5.50;5.00;;;5.30;99.90;;;;;;4972063;28;20479;-68
2022/11/13 04:49:23;;;;;;;6.43;5.40;;;5.20;99.90;;;;;;4971833;28;20840;-67
2022/11/13 04:51:49;;;;;;;5.88;5.38;;;5.20;99.90;;;;;;4971959;28;20415;-68
2022/11/13 04:54:14;;;;;;;5.17;4.77;;;5.30;99.90;;;;;;4971446;28;20372;-68
2022/11/13 04:56:40;;;;;;;5.30;4.80;;;5.30;99.90;;;;;;4971804;28;20446;-68
2022/11/13 04:59:05;;;;;;;5.00;4.50;;;5.20;99.90;;;;;;4971712;28;20937;-67
2022/11/13 05:01:31;;;;;;;5.30;4.80;;;5.20;99.90;;;;;;4971867;28;20419;-68
2022/11/13 05:03:58;;;;;;;4.82;4.38;;;5.30;99.90;;;;;;4970828;28;20503;-67
2022/11/13 05:06:24;;;;;;;5.28;4.85;;;5.30;99.90;;;;;;4971732;28;20463;-68
2022/11/13 05:08:49;;;;;;;4.80;4.40;;;5.40;99.90;;;;;;4971441;28;20448;-67
2022/11/13 05:11:15;;;;;;;5.82;5.25;;;5.30;99.90;;;;;;4971715;28;20454;-68
2022/11/13 05:13:40;;;;;;;4.33;3.93;;;5.20;99.90;;;;;;4971307;28;20389;-67
2022/11/13 05:16:09;;;;;;;4.90;4.50;;;5.20;99.90;;;;;;4971799;28;20407;-68
2022/11/13 05:18:36;;;;;;;5.30;4.85;;;5.00;99.90;;;;;;4971479;28;20431;-67
2022/11/13 05:21:02;;;;;;;4.75;4.35;;;5.10;99.90;;;;;;4971607;28;20883;-67
2022/11/13 05:23:28;;;;;;;4.10;3.80;;;5.20;99.90;;;;;;4971136;28;20408;-68
2022/11/13 05:26:04;;;;;;;3.90;3.60;;;5.10;99.90;;;;;;4971478;28;20408;-68
2022/11/13 05:28:30;;;;;;;4.00;3.70;;;4.90;99.90;;;;;;4971279;28;20416;-68
2022/11/13 05:31:14;;;;;;;4.90;4.40;;;4.90;99.90;;;;;;4971562;28;20863;-67
2022/11/13 05:33:41;;;;;;;4.40;4.00;;;5.10;99.90;;;;;;4964965;28;20440;-67
2022/11/13 05:36:12;;;;;;;4.60;4.20;;;5.10;99.90;;;;;;4952102;28;20398;-68
2022/11/13 05:38:39;;;;;;;4.35;3.95;;;5.00;99.90;;;;;;4952022;28;20891;-68
2022/11/13 05:41:05;;;;;;;4.10;3.75;;;5.00;99.90;;;;;;4952052;28;20784;-68
2022/11/13 05:43:31;;;;;;;4.33;3.93;;;5.10;99.90;;;;;;4951755;29;20876;-68
2022/11/13 05:46:07;;;;;;;4.35;3.95;;;5.10;99.90;;;;;;4952066;28;20413;-68
2022/11/13 05:48:33;;;;;;;3.88;3.58;;;5.00;99.90;;;;;;4951756;28;20421;-68
2022/11/13 05:51:08;;;;;;;4.20;3.90;;;4.90;99.90;;;;;;4952039;28;20862;-68
2022/11/13 05:53:34;;;;;;;4.32;3.92;;;5.10;99.90;;;;;;4951596;28;20937;-68
2022/11/13 05:56:03;;;;;;;4.28;3.97;;;5.10;99.90;;;;;;4951996;28;20393;-68
2022/11/13 05:58:29;;;;;;;3.57;3.27;;;5.10;99.90;;;;;;4953717;28;20421;-68
2022/11/13 06:01:04;;;;;;;4.10;3.55;;;5.00;99.90;;;;;;4955533;28;20426;-68
2022/11/13 06:03:30;;;;;;;4.05;3.75;;;5.10;99.90;;;;;;4955314;29;20386;-68
2022/11/13 06:05:57;;;;;;;4.30;3.90;;;5.10;99.90;;;;;;4955585;29;20389;-68
2022/11/13 06:08:22;;;;;;;3.72;3.42;;;5.10;99.90;;;;;;4955277;28;20468;-68
2022/11/13 06:10:48;;;;;;;4.43;3.90;;;5.00;99.90;;;;;;4955496;29;20389;-68
2022/11/13 06:13:13;;;;;;;4.10;3.80;;;5.00;99.90;;;;;;4955066;29;20389;-68
2022/11/13 06:15:39;;;;;;;4.07;3.78;;;5.00;99.90;;;;;;4955226;29;20872;-68
2022/11/13 06:18:05;;;;;;;4.35;3.95;;;5.10;99.90;;;;;;4955301;29;20444;-68
2022/11/13 06:20:36;;;;;;;4.32;3.97;;;5.00;99.90;;;;;;4955333;29;20394;-68
2022/11/13 06:23:01;;;;;;;4.28;3.92;;;5.20;99.90;;;;;;4954941;28;20432;-68
2022/11/13 06:25:27;;;;;;;4.47;4.07;;;5.20;99.90;;;;;;4955209;28;20875;-68
2022/11/13 06:27:53;;;;;;;4.10;3.80;;;5.20;99.90;;;;;;4955044;29;20390;-68
2022/11/13 06:30:19;;;;;;;4.18;3.88;;;5.20;99.90;;;;;;4954959;28;20418;-68
2022/11/13 06:32:52;;;;;;;4.10;3.80;;;5.20;99.90;;;;;;4954408;29;20397;-69
2022/11/13 06:35:17;;;;;;;4.72;4.32;;;5.20;99.90;;;;;;4949677;28;20900;-70
2022/11/13 06:37:43;;;;;;;4.82;4.43;;;5.20;99.90;;;;;;4954935;28;20397;-71
2022/11/13 06:40:09;;;;;;;4.50;4.10;;;5.30;99.90;;;;;;4948014;29;20433;-71
2022/11/13 06:42:35;;;;;;;4.72;4.20;;;5.30;99.90;;;;;;4954299;28;20398;-69
2022/11/13 06:45:04;;;;;;;4.53;4.13;;;5.20;99.90;;;;;;4954841;28;20730;-71
2022/11/13 06:47:29;;;;;;;4.82;4.32;;;5.20;99.90;;;;;;4954926;28;20387;-70
2022/11/13 06:49:58;;;;;;;4.30;3.90;;;5.20;99.90;;;;;;4954619;29;20417;-70
2022/11/13 06:52:23;;;;;;;3.92;3.60;;;5.30;99.90;;;;;;4953971;29;20386;-69
2022/11/13 06:54:49;;;;;;;4.70;3.45;;;5.00;99.90;;;;;;4953187;29;20448;-70
2022/11/13 06:57:15;;;;;;;3.90;3.60;;;5.20;99.90;;;;;;4953201;29;20398;-71
2022/11/13 06:59:42;;;;;;;3.80;3.40;;;5.20;99.90;;;;;;4953412;29;20918;-70
2022/11/13 07:02:09;;;;;;;3.30;3.00;;;5.10;99.90;;;;;;4953701;28;20468;-70
2022/11/13 07:04:35;;;;;;;3.25;3.03;;;5.20;99.90;;;;;;4953929;28;20390;-70
2022/11/13 07:07:00;;;;;;;3.33;3.03;;;5.20;99.90;;;;;;4954615;29;20757;-71
2022/11/13 07:09:26;;;;;;;3.77;3.33;;;5.20;99.90;;;;;;4953281;28;20441;-71
2022/11/13 07:11:51;;;;;;;3.60;3.30;;;5.20;99.90;;;;;;4949969;29;20406;-71
2022/11/13 07:14:17;;;;;;;3.47;3.15;;;5.20;99.90;;;;;;4952991;28;20394;-71
2022/11/13 07:16:42;;;;;;;3.60;3.30;;;5.10;99.90;;;;;;4954341;29;20822;-71
2022/11/13 07:19:08;;;;;;;3.50;3.20;;;5.00;99.90;;;;;;4954144;29;20911;-71
2022/11/13 07:21:33;;;;;;;4.17;3.77;;;5.10;99.90;;;;;;4954171;29;20473;-71
2022/11/13 07:23:59;;;;;;;3.27;2.97;;;5.10;99.90;;;;;;4953841;29;20433;-71
2022/11/13 07:26:24;;;;;;;3.20;3.00;;;5.10;99.90;;;;;;4954095;29;20476;-71
2022/11/13 07:28:50;;;;;;;3.25;2.95;;;5.10;99.90;;;;;;4953977;29;20414;-70
2022/11/13 07:31:16;;;;;;;3.35;2.97;;;5.10;99.90;;;;;;4954155;29;20525;-72
2022/11/13 07:33:42;;;;;;;3.05;2.75;;;5.10;99.90;;;;;;4953833;29;20481;-72
2022/11/13 07:36:09;;;;;;;3.20;2.90;;;5.20;99.90;;;;;;4954035;28;20919;-72
2022/11/13 07:38:34;;;;;;;3.60;3.30;;;5.20;99.90;;;;;;4953859;28;20753;-72
2022/11/13 07:41:00;;;;;;;3.35;3.05;;;5.20;99.90;;;;;;4952231;29;20406;-72
2022/11/13 07:43:26;;;;;;;3.67;3.38;;;5.10;99.90;;;;;;4951795;29;20922;-72
2022/11/13 07:45:55;;;;;;;4.30;3.90;;;5.10;99.90;;;;;;4953613;28;20405;-72
2022/11/13 07:48:22;;;;;;;3.30;3.00;;;5.20;99.90;;;;;;4953651;28;20428;-72
2022/11/13 07:50:49;;;;;;;3.60;3.30;;;5.20;99.90;;;;;;4953763;28;20397;-72
2022/11/13 07:53:15;;;;;;;3.30;3.00;;;5.20;99.90;;;;;;4953439;28;20477;-72
2022/11/13 07:55:41;;;;;;;3.72;3.42;;;5.20;99.90;;;;;;4953584;28;20395;-72
2022/11/13 07:58:06;;;;;;;3.30;3.10;;;5.20;99.90;;;;;;4952398;29;20546;-72
2022/11/13 08:00:33;;;;;;;3.50;3.20;;;5.30;99.90;;;;;;4953612;29;20472;-72
2022/11/13 08:03:07;;;;;;;3.35;3.05;;;5.20;99.90;;;;;;4953383;28;20397;-71
2022/11/13 08:05:33;;;;;;;3.28;2.97;;;5.10;99.90;;;;;;4953479;28;20405;-73
2022/11/13 08:07:58;;;;;;;3.50;3.20;;;5.10;99.90;;;;;;4953319;28;20481;-72
2022/11/13 08:10:24;;;;;;;3.27;2.97;;;5.10;99.90;;;;;;4953445;29;20467;-71
2022/11/13 08:13:00;;;;;;;3.50;3.20;;;5.10;99.90;;;;;;4953221;29;20385;-73
2022/11/13 08:15:27;;;;;;;4.30;3.90;;;5.20;99.90;;;;;;4953398;28;20390;-73
2022/11/13 08:17:54;;;;;;;4.38;3.97;;;5.30;99.90;;;;;;4953382;28;20877;-72
2022/11/13 08:20:20;;;;;;;3.80;3.50;;;5.40;99.90;;;;;;4952834;28;20390;-71
2022/11/13 08:22:46;;;;;;;4.60;4.03;;;5.20;99.90;;;;;;4952832;29;20726;-73
2022/11/13 08:25:11;;;;;;;4.35;3.95;;;5.30;99.90;;;;;;4953295;29;20390;-71
2022/11/13 08:27:37;;;;;;;4.15;3.80;;;5.40;99.90;;;;;;4953167;29;20398;-72
2022/11/13 08:30:03;;;;;;;3.75;3.45;;;5.60;99.90;;;;;;4984599;23;20442;-74
2022/11/13 08:32:29;;;;;;;3.83;3.53;;;5.40;99.90;;;;;;4952773;28;20387;-74
2022/11/13 08:34:54;;;;;;;4.10;3.70;;;5.50;99.90;;;;;;4969712;28;20455;-74
2022/11/13 08:37:20;;;;;;;3.72;3.42;;;5.40;99.90;;;;;;4972458;28;20392;-74
2022/11/13 08:39:45;;;;;;;3.90;3.60;;;5.50;99.90;;;;;;4960823;28;20405;-74
2022/11/13 08:42:11;;;;;;;5.35;4.20;;;5.50;99.90;;;;;;4952743;28;20394;-74
2022/11/13 08:44:36;;;;;;;8.43;6.97;;;5.40;99.90;;;;;;4952795;28;20390;-74
2022/11/13 08:47:02;;;;;;;5.87;5.27;;;5.30;99.90;;;;;;4951330;29;20404;-74
2022/11/13 08:49:27;;;;;;;5.13;3.97;;;5.60;99.90;;;;;;4951650;28;21006;-74
2022/11/13 08:51:53;;;;;;;4.07;3.60;;;5.70;99.90;;;;;;4943705;28;20405;-74
2022/11/13 08:54:19;;;;;;;4.10;3.70;;;5.70;99.90;;;;;;4951738;28;20457;-74
2022/11/13 08:56:47;;;;;;;4.88;4.38;;;5.40;99.90;;;;;;4952322;28;20394;-74
2022/11/13 08:59:13;;;;;;;4.70;4.30;;;5.40;99.90;;;;;;4953418;28;20398;-74
2022/11/13 09:01:39;;;;;;;4.82;4.43;;;5.30;99.90;;;;;;4952955;28;20772;-74
2022/11/13 09:04:04;;;;;;;4.50;4.00;;;5.40;99.90;;;;;;4952661;28;20792;-74
2022/11/13 09:06:31;;;;;;;4.63;4.20;;;5.60;99.90;;;;;;4951619;29;20398;-75
2022/11/13 09:08:57;;;;;;;4.70;4.30;;;5.50;99.90;;;;;;4952746;28;20493;-74
2022/11/13 09:11:26;;;;;;;4.50;4.10;;;5.40;99.90;;;;;;4952451;28;20477;-74
2022/11/13 09:13:52;;;;;;;4.75;4.35;;;5.30;99.90;;;;;;4952221;28;20390;-74
2022/11/13 09:16:17;;;;;;;4.60;4.20;;;5.40;99.90;;;;;;4952514;28;20456;-74
2022/11/13 09:18:43;;;;;;;5.70;5.20;;;5.50;99.90;;;;;;4952677;28;20489;-75
2022/11/13 09:21:09;;;;;;;5.35;4.85;;;5.60;99.90;;;;;;4952492;28;20768;-74
2022/11/13 09:23:35;;;;;;;4.60;4.20;;;5.70;99.90;;;;;;4952353;28;20389;-74
2022/11/13 09:26:02;;;;;;;4.70;4.30;;;5.70;99.90;;;;;;4952350;28;20886;-74
2022/11/13 09:28:28;;;;;;;4.85;4.35;;;5.70;99.90;;;;;;4952300;28;20506;-74
2022/11/13 09:30:53;;;;;;;4.27;3.87;;;5.90;99.90;;;;;;4952424;28;20512;-74
2022/11/13 09:33:19;;;;;;;4.30;3.90;;;5.80;99.90;;;;;;4954031;28;20400;-74
2022/11/13 09:35:45;;;;;;;4.80;4.40;;;5.60;99.90;;;;;;4956553;28;20444;-74
2022/11/13 09:38:12;;;;;;;4.50;4.10;;;5.80;99.90;;;;;;4956366;28;20394;-74
2022/11/13 09:41:02;;;;;;;5.40;4.90;;;5.90;99.90;;;;;;4971076;28;20413;-74
2022/11/13 09:43:32;;;;;;;4.63;4.22;;;5.90;99.90;;;;;;4956126;28;20405;-74
2022/11/13 09:46:15;;;;;;;4.95;4.47;;;5.80;99.90;;;;;;4956154;28;20808;-74
2022/11/13 09:48:47;;;;;;;4.90;4.50;;;5.90;99.90;;;;;;4956277;28;20496;-75
2022/11/13 09:51:17;;;;;;;4.88;4.47;;;6.00;99.90;;;;;;4954823;29;20401;-75
2022/11/13 09:53:43;;;;;;;5.72;4.95;;;5.90;99.90;;;;;;4955930;28;20850;-74
2022/11/13 09:56:23;;;;;;;5.10;4.60;;;5.90;99.90;;;;;;4955851;28;20448;-74
2022/11/13 09:59:18;;;;;;;5.40;4.90;;;5.90;99.90;;;;;;4955868;28;21034;-73
2022/11/13 10:02:29;;;;;;;5.15;4.40;;;5.90;99.90;;;;;;4956070;28;20872;-74
2022/11/13 10:05:25;;;;;;;4.45;3.85;;;6.00;99.90;;;;;;4953647;28;20406;-73
2022/11/13 10:08:17;;;;;;;5.78;5.28;;;6.10;99.90;;;;;;4955600;28;20456;-74
2022/11/13 10:10:50;;;;;;;4.78;4.38;;;6.00;99.90;;;;;;4955586;28;20437;-74
2022/11/13 10:13:41;;;;;;;4.78;4.38;;;6.10;99.90;;;;;;4953629;28;20397;-74
2022/11/13 10:16:12;;;;;;;5.70;5.10;;;6.00;99.90;;;;;;4953939;29;20846;-74
2022/11/13 10:18:39;;;;;;;5.10;4.70;;;6.10;99.90;;;;;;4955257;28;20496;-74
2022/11/13 10:21:18;;;;;;;4.82;4.43;;;6.00;99.90;;;;;;4955235;28;20431;-74
2022/11/13 10:23:53;;;;;;;4.88;4.47;;;6.20;99.90;;;;;;4955076;28;20460;-74
2022/11/13 10:26:20;;;;;;;5.05;4.55;;;6.10;99.90;;;;;;4955308;28;20881;-74
2022/11/13 10:28:53;;;;;;;4.63;4.30;;;6.20;99.90;;;;;;4955115;28;20451;-74
2022/11/13 10:31:18;;;;;;;4.82;4.43;;;6.10;99.90;;;;;;4955184;28;20843;-74
2022/11/13 10:33:44;;;;;;;4.30;3.90;;;6.20;99.90;;;;;;4961130;28;20419;-74
2022/11/13 10:36:15;;;;;;;5.13;4.63;;;6.30;99.90;;;;;;4973136;28;20439;-74
2022/11/13 10:38:48;;;;;;;5.20;4.70;;;6.10;99.90;;;;;;4970769;28;20467;-74
2022/11/13 10:41:19;;;;;;;4.70;4.30;;;6.20;99.90;;;;;;4951471;28;20391;-74
2022/11/13 10:43:57;;;;;;;4.80;4.40;;;6.20;99.90;;;;;;4954421;28;20411;-74
2022/11/13 10:46:30;;;;;;;5.30;4.90;;;6.00;99.90;;;;;;4954804;28;20756;-74
2022/11/13 10:48:57;;;;;;;4.38;4.07;;;6.30;99.90;;;;;;4955203;28;20390;-73
2022/11/13 10:51:29;;;;;;;4.78;4.38;;;6.10;99.90;;;;;;4954863;28;20784;-73
2022/11/13 10:53:56;;;;;;;5.07;4.57;;;6.00;99.90;;;;;;4953114;29;20523;-72
2022/11/13 10:56:33;;;;;;;5.20;4.70;;;6.10;99.90;;;;;;4964956;28;20489;-73
2022/11/13 10:59:10;;;;;;;6.10;5.50;;;6.30;99.90;;;;;;4967493;28;20410;-73
2022/11/13 11:01:35;;;;;;;4.88;4.40;;;6.40;99.90;;;;;;4964833;28;20422;-74
2022/11/13 11:04:06;;;;;;;5.00;4.50;;;6.50;99.90;;;;;;4959357;28;20462;-75
2022/11/13 11:06:36;;;;;;;5.18;4.68;;;6.30;99.90;;;;;;4970399;28;20401;-74
2022/11/13 11:09:30;;;;;;;5.30;4.80;;;6.30;99.90;;;;;;4961244;28;20439;-74
2022/11/13 11:12:22;;;;;;;16.27;12.90;;;6.40;99.90;;;;;;4960300;28;20745;-73
2022/11/13 11:15:00;;;;;;;6.80;6.10;;;6.50;99.90;;;;;;4962989;28;20423;-74
2022/11/13 11:17:34;;;;;;;6.20;5.70;;;6.50;99.90;;;;;;4964695;28;20428;-74
2022/11/13 11:20:14;;;;;;;6.00;5.40;;;6.60;99.90;;;;;;4981565;28;20416;-74
2022/11/13 11:22:42;;;;;;;5.40;4.90;;;6.70;99.90;;;;;;4962841;28;20754;-73
2022/11/13 11:25:14;;;;;;;5.85;5.35;;;6.70;99.90;;;;;;4962620;28;20765;-74
2022/11/13 11:27:49;;;;;;;5.60;5.10;;;6.60;99.90;;;;;;4957626;28;20405;-74
2022/11/13 11:30:27;;;;;;;6.20;5.57;;;6.70;99.90;;;;;;4957686;28;21007;-74
2022/11/13 11:33:08;;;;;;;5.47;4.97;;;6.30;99.90;;;;;;4958751;28;20764;-71
2022/11/13 11:35:53;;;;;;;5.73;5.23;;;6.30;99.90;;;;;;4973369;28;20412;-71
2022/11/13 11:38:25;;;;;;;5.93;5.43;;;6.30;99.90;;;;;;4964944;28;20468;-74
2022/11/13 11:41:20;;;;;;;5.53;5.03;;;6.40;99.90;;;;;;4965474;28;20392;-73
2022/11/13 11:44:00;;;;;;;5.60;5.10;;;6.50;99.90;;;;;;4963764;28;20402;-74
2022/11/13 11:46:28;;;;;;;5.80;5.20;;;6.40;99.90;;;;;;4965303;28;20491;-75
2022/11/13 11:48:57;;;;;;;6.03;5.43;;;6.50;99.90;;;;;;4963769;28;20407;-75
2022/11/13 11:51:30;;;;;;;6.10;5.50;;;6.30;99.90;;;;;;4964641;28;20413;-75
2022/11/13 11:54:11;;;;;;;5.80;5.30;;;6.40;99.90;;;;;;4976782;28;20401;-75
2022/11/13 11:56:51;;;;;;;6.27;5.67;;;6.10;99.90;;;;;;4978892;28;20463;-75
2022/11/13 11:59:22;;;;;;;5.55;5.05;;;6.30;99.90;;;;;;4977777;28;20455;-76
2022/11/13 12:02:17;;;;;;;5.78;5.28;;;6.40;99.90;;;;;;4965291;28;20392;-73
2022/11/13 12:05:14;;;;;;;5.67;5.13;;;6.50;99.90;;;;;;4957370;28;20420;-74
2022/11/13 12:07:46;;;;;;;5.70;5.20;;;6.50;99.90;;;;;;4960419;28;20843;-74
2022/11/13 12:10:38;;;;;;;5.93;5.43;;;6.50;99.90;;;;;;4957548;28;20447;-73
2022/11/13 12:13:21;;;;;;;5.70;5.10;;;6.60;99.90;;;;;;4976300;28;20392;-74
2022/11/13 12:16:11;;;;;;;5.20;4.80;;;6.60;99.90;;;;;;4955934;28;20426;-72
2022/11/13 12:18:40;;;;;;;5.40;4.90;;;6.70;99.90;;;;;;4950586;28;20897;-72
2022/11/13 12:21:47;;;;;;;5.68;5.18;;;6.80;99.90;;;;;;4961822;28;20390;-72
2022/11/13 12:24:24;;;;;;;4.47;4.00;;;6.60;99.90;;;;;;4957768;28;20444;-72
2022/11/13 12:27:05;;;;;;;7.55;6.57;;;6.80;99.90;;;;;;4949330;28;20414;-71
2022/11/13 12:29:58;;;;;;;9.80;7.90;;;7.00;99.90;;;;;;4953582;28;20410;-71
2022/11/13 12:32:38;;;;;;;4.20;3.90;;;6.80;99.90;;;;;;4965665;28;20396;-72
2022/11/13 12:35:17;;;;;;;4.37;3.97;;;6.80;99.90;;;;;;4955744;28;20442;-73
2022/11/13 12:37:52;;;;;;;5.03;4.53;;;6.70;99.90;;;;;;4957224;28;21005;-73
2022/11/13 12:40:20;;;;;;;4.10;3.80;;;6.60;99.90;;;;;;4947695;28;20431;-73
2022/11/13 12:42:52;;;;;;;4.50;4.10;;;6.80;99.90;;;;;;4954027;28;20420;-73
2022/11/13 12:45:27;;;;;;;5.40;4.90;;;6.60;99.90;;;;;;4951188;28;20429;-73
2022/11/13 12:47:52;;;;;;;5.90;5.40;;;6.50;99.90;;;;;;4949910;28;20423;-73
2022/11/13 12:50:28;;;;;;;5.20;4.80;;;6.60;99.90;;;;;;4956049;28;20408;-72
2022/11/13 12:52:58;;;;;;;5.40;4.90;;;6.80;99.90;;;;;;4957625;28;20405;-72
2022/11/13 12:55:27;;;;;;;5.38;4.88;;;6.90;99.90;;;;;;4954373;28;20514;-72
2022/11/13 12:58:22;;;;;;;5.88;5.28;;;7.00;99.90;;;;;;4955090;28;20460;-73
2022/11/13 13:01:17;;;;;;;5.03;4.63;;;6.80;99.90;;;;;;4958163;28;20391;-72
2022/11/13 13:04:03;;;;;;;5.30;4.90;;;6.80;99.90;;;;;;4945050;29;20767;-72
2022/11/13 13:07:02;;;;;;;5.20;4.70;;;6.80;99.90;;;;;;4952024;28;20386;-72
2022/11/13 13:09:54;;;;;;;4.55;4.15;;;6.70;99.90;;;;;;4951417;28;20780;-72
2022/11/13 13:12:31;;;;;;;5.68;4.63;;;6.80;99.90;;;;;;4949786;29;20449;-72